• Join FlightAware (Why Join?)
  • Login
  • US Flag 
04:21AM EDT


 

Airport Tracker/Info


-or-


 

Live Flight TrackerFlight Track Log ✈ RPA4888 ✈ 17-Jun-2013 ✈ KIAD - KORF

Flight Track Log - Related Links

Times and Time Zones

All times are in EDT time to prevent confusion due to time zone crossing. See the RPA4888 flight status page for this flight to view local times or setup timezone preferences in your user account.

Time Position Orientation Groundspeed Altitude Reporting Facility
EDT Latitude Longitude Course Direction KTS MPH feet Rate Location/Type
12:55AM 38.9000 -77.4667 169° South 176 203 2,400  Level Potomac TRACON
12:56AM 38.8333 -77.4500 169° South 228 262 3,800 1,500 Climbing Potomac TRACON
12:57AM 38.7667 -77.4667 191° South 257 296 5,500 1,560 Climbing Potomac TRACON
12:58AM 38.7000 -77.4667 180° South 262 302 7,000 720 Climbing Potomac TRACON
12:59AM 38.6167 -77.4667 180° South 265 305 7,000  Level Potomac TRACON
01:01AM 38.5386 -77.4078 150° Southeast  Level Estimated
01:02AM 38.4000 -77.4500 151° Southeast 265 305 7,000  Level Potomac TRACON
01:04AM 38.3316 -77.3919 146° Southeast  Level Estimated
01:05AM 38.2333 -77.3333 146° Southeast 272 313 7,000  Level Potomac TRACON
01:06AM 38.1667 -77.2833 149° Southeast 268 308 7,000  Level Potomac TRACON
01:07AM 38.1167 -77.2500 152° Southeast 267 307 7,000  Level Potomac TRACON
01:08AM 38.1425 -77.0136 151° Southeast  Level FlightAware Approximate
01:08AM 38.0333 -77.1667 142° Southeast 268 308 7,000  Level Potomac TRACON
01:09AM 37.9667 -77.1167 149° Southeast 267 307 7,000  Level Potomac TRACON
01:10AM 37.9167 -77.0667 142° Southeast 266 306 7,000  Level Potomac TRACON
01:11AM 37.8667 -77.0167 142° Southeast 268 308 7,000  Level Potomac TRACON
01:12AM 37.7833 -76.9500 148° Southeast 275 316 7,000  Level Potomac TRACON
01:13AM 37.7167 -76.9000 149° Southeast 277 319 7,000  Level Potomac TRACON
01:14AM 37.6667 -76.8667 152° Southeast 275 316 7,000  Level Potomac TRACON
01:15AM 37.6000 -76.8000 142° Southeast 278 320 7,000  Level Potomac TRACON
01:16AM 37.5500 -76.7500 142° Southeast 279 321 7,000  Level Potomac TRACON
01:17AM 37.4833 -76.6833 142° Southeast 282 325 7,000  Level Potomac TRACON
01:18AM 37.4500 -76.6333 130° Southeast 280 322 7,000  Level Potomac TRACON
01:19AM 37.3833 -76.5667 142° Southeast 284 327 7,000  Level Potomac TRACON
01:20AM 37.3333 -76.5167 142° Southeast 281 323 7,000  Level Potomac TRACON
01:22AM 37.2131 -76.4265 149° Southeast  Level FlightAware Approximate
01:29AM 36.8946 -76.2012 180° South  Level Estimated
01:30AM 36.8946 -76.2012 180° South  Level Estimated
01:31AM 36.8946 -76.2012 180° South  Level Estimated